createdAt,value
2018-03-30T00:00:41.896Z,100049.50
2018-03-30T00:03:10.294Z,100051.19
2018-03-30T00:05:39.467Z,100052.48
2018-03-30T00:08:07.904Z,100046.47
2018-03-30T00:10:41.810Z,100046.80
2018-03-30T00:13:11.231Z,100049.48
2018-03-30T00:15:39.612Z,100044.13
2018-03-30T00:18:08.005Z,100043.02
2018-03-30T00:20:36.428Z,100034.84
2018-03-30T00:23:04.823Z,100031.50
2018-03-30T00:25:33.971Z,100033.98
2018-03-30T00:28:02.353Z,100035.59
2018-03-30T00:30:30.740Z,100034.09
2018-03-30T00:32:59.152Z,100032.34
2018-03-30T00:35:27.545Z,100035.89
2018-03-30T00:37:55.920Z,100033.64
2018-03-30T00:40:25.164Z,100033.98
2018-03-30T00:42:53.586Z,100025.27
2018-03-30T00:45:22.009Z,100031.62
2018-03-30T00:47:50.508Z,100024.38
2018-03-30T00:50:18.900Z,100021.28
2018-03-30T00:52:47.283Z,100024.23
2018-03-30T00:55:15.682Z,100012.87
2018-03-30T00:57:44.063Z,100017.27
2018-03-30T01:00:12.465Z,100019.86
2018-03-30T01:02:40.963Z,100020.16
2018-03-30T01:05:09.380Z,100006.24
2018-03-30T01:07:37.753Z,100005.56
2018-03-30T01:10:06.162Z,99995.09
2018-03-30T01:12:34.634Z,99999.30
2018-03-30T01:15:03.237Z,99995.86
2018-03-30T01:17:31.656Z,99997.94
2018-03-30T01:20:00.036Z,99994.09
2018-03-30T01:22:28.417Z,99992.07
2018-03-30T01:24:56.800Z,99990.01
2018-03-30T01:27:25.939Z,99982.62
2018-03-30T01:29:54.318Z,99983.16
2018-03-30T01:32:22.702Z,99983.34
2018-03-30T01:34:51.155Z,99982.42
2018-03-30T01:37:20.352Z,99978.95
2018-03-30T01:39:52.720Z,99972.59
2018-03-30T01:42:21.891Z,99971.74
2018-03-30T01:44:50.278Z,99964.64
2018-03-30T01:47:18.678Z,99970.22
2018-03-30T01:49:47.866Z,99966.64
2018-03-30T01:52:16.288Z,99969.45
2018-03-30T01:54:44.663Z,99975.00
2018-03-30T01:57:13.064Z,99974.92
2018-03-30T01:59:41.606Z,99976.14
2018-03-30T02:02:10.755Z,99975.31
2018-03-30T02:04:39.193Z,99972.56
2018-03-30T02:07:07.582Z,99966.12
2018-03-30T02:09:36.720Z,99964.48
2018-03-30T02:12:05.273Z,99965.90
2018-03-30T02:14:33.643Z,99954.96
2018-03-30T02:17:02.948Z,99957.27
2018-03-30T02:19:32.086Z,99954.88
2018-03-30T02:22:01.386Z,99952.59
2018-03-30T02:24:29.751Z,99947.87
2018-03-30T02:26:58.127Z,99946.68
2018-03-30T02:29:26.527Z,99937.27
2018-03-30T02:31:54.893Z,99937.48
2018-03-30T02:34:23.317Z,99929.89
2018-03-30T02:36:51.711Z,99931.05
2018-03-30T02:39:20.126Z,99927.98
2018-03-30T02:41:48.542Z,99930.05
2018-03-30T02:44:16.943Z,99932.16
2018-03-30T02:46:45.348Z,99927.33
2018-03-30T02:49:13.719Z,99928.91
2018-03-30T02:51:42.175Z,99927.09
2018-03-30T02:54:11.344Z,99925.02
2018-03-30T02:56:39.937Z,99924.33
2018-03-30T02:59:08.470Z,99921.77
2018-03-30T03:01:37.037Z,99920.23
2018-03-30T03:04:05.415Z,99918.95
2018-03-30T03:06:33.804Z,99919.97
2018-03-30T03:09:02.379Z,99924.27
2018-03-30T03:11:30.762Z,99916.59
2018-03-30T03:14:00.551Z,99921.46
2018-03-30T03:16:28.947Z,99921.94
2018-03-30T03:18:57.391Z,99915.94
2018-03-30T03:21:26.526Z,99917.52
2018-03-30T03:23:54.947Z,99911.65
2018-03-30T03:26:23.330Z,99911.20
2018-03-30T03:28:52.680Z,99908.87
2018-03-30T03:31:21.144Z,99907.78
2018-03-30T03:33:49.530Z,99912.84
2018-03-30T03:36:17.925Z,99906.12
2018-03-30T03:38:46.324Z,99903.90
2018-03-30T03:41:14.878Z,99897.81
2018-03-30T03:43:43.280Z,99898.77
2018-03-30T03:46:11.671Z,99902.95
2018-03-30T03:48:40.101Z,99899.78
2018-03-30T03:51:09.240Z,99897.48
2018-03-30T03:53:37.634Z,99894.64
2018-03-30T03:56:06.043Z,99901.63
2018-03-30T03:58:34.461Z,99890.33
2018-03-30T04:01:02.973Z,99892.55
2018-03-30T04:03:31.351Z,99891.80
2018-03-30T04:05:59.755Z,99891.55
2018-03-30T04:08:28.110Z,99890.27
2018-03-30T04:10:56.486Z,99892.56
2018-03-30T04:13:24.932Z,99890.42
2018-03-30T04:15:54.134Z,99892.31
2018-03-30T04:18:23.270Z,99890.30
2018-03-30T04:20:51.631Z,99890.25
2018-03-30T04:23:20.005Z,99888.63
2018-03-30T04:25:48.371Z,99889.61
2018-03-30T04:28:17.523Z,99891.56
2018-03-30T04:30:45.900Z,99888.39
2018-03-30T04:33:14.360Z,99884.14
2018-03-30T04:35:42.725Z,99878.70
2018-03-30T04:38:11.190Z,99870.20
2018-03-30T04:40:40.342Z,99865.05
2018-03-30T04:43:08.726Z,99881.36
2018-03-30T04:45:37.138Z,99880.14
2018-03-30T04:48:05.559Z,99878.28
2018-03-30T04:50:33.965Z,99877.27
2018-03-30T04:53:02.350Z,99875.05
2018-03-30T04:55:30.926Z,99876.98
2018-03-30T04:57:59.350Z,99872.43
2018-03-30T05:00:27.723Z,99880.30
2018-03-30T05:02:56.103Z,99877.41
2018-03-30T05:05:25.268Z,99877.13
2018-03-30T05:07:53.680Z,99881.71
2018-03-30T05:10:22.016Z,99880.02
2018-03-30T05:12:50.447Z,99884.23
2018-03-30T05:15:18.835Z,99880.14
2018-03-30T05:17:47.498Z,99894.40
2018-03-30T05:20:15.892Z,99881.23
2018-03-30T05:22:44.293Z,99888.02
2018-03-30T05:25:13.463Z,99890.67
2018-03-30T05:27:41.861Z,99883.80
2018-03-30T05:30:10.426Z,99889.95
2018-03-30T05:32:38.903Z,99886.52
2018-03-30T05:35:07.299Z,99883.09
2018-03-30T05:37:35.704Z,99880.83
2018-03-30T05:40:04.097Z,99880.83
2018-03-30T05:42:33.251Z,99879.50
2018-03-30T05:45:01.635Z,99880.90
2018-03-30T05:47:30.092Z,99878.37
2018-03-30T05:49:58.484Z,99872.52
2018-03-30T05:52:26.864Z,99869.92
2018-03-30T05:54:55.306Z,99865.70
2018-03-30T05:57:24.488Z,99865.39
2018-03-30T05:59:52.889Z,99866.92
2018-03-30T06:02:22.107Z,99861.01
2018-03-30T06:04:50.516Z,99864.40
2018-03-30T06:07:18.892Z,99867.20
2018-03-30T06:09:47.286Z,99864.48
2018-03-30T06:12:15.685Z,99869.58
2018-03-30T06:14:44.128Z,99875.28
2018-03-30T06:17:12.526Z,99870.20
2018-03-30T06:19:40.904Z,99870.83
2018-03-30T06:22:09.288Z,99867.48
2018-03-30T06:24:37.710Z,99864.16
2018-03-30T06:27:07.044Z,99861.69
2018-03-30T06:29:36.215Z,99860.20
2018-03-30T06:32:04.611Z,99859.24
2018-03-30T06:34:32.987Z,99854.41
2018-03-30T06:37:01.363Z,99855.27
2018-03-30T06:39:31.376Z,99849.29
2018-03-30T06:42:02.406Z,99847.09
2018-03-30T06:44:31.562Z,99846.23
2018-03-30T06:46:59.956Z,99843.00
2018-03-30T06:49:28.583Z,99842.34
2018-03-30T06:51:56.968Z,99836.74
2018-03-30T06:54:25.344Z,99833.73
2018-03-30T06:57:08.730Z,99830.67
2018-03-30T06:59:37.130Z,99835.47
2018-03-30T07:02:05.549Z,99837.80
2018-03-30T07:04:34.798Z,99830.84
2018-03-30T07:07:03.488Z,99833.42
2018-03-30T07:09:31.893Z,99827.29
2018-03-30T07:12:00.444Z,99831.39
2018-03-30T07:14:28.817Z,99825.45
2018-03-30T07:16:57.234Z,99825.97
2018-03-30T07:19:25.854Z,99821.25
2018-03-30T07:21:55.563Z,99806.65
2018-03-30T07:24:23.974Z,99807.50
2018-03-30T07:26:52.394Z,99807.94
2018-03-30T07:29:20.811Z,99805.36
2018-03-30T07:31:49.960Z,99798.39
2018-03-30T07:34:18.384Z,99801.27
2018-03-30T07:36:47.548Z,99794.89
2018-03-30T07:39:15.977Z,99786.53
2018-03-30T07:41:45.148Z,99799.27
2018-03-30T07:44:14.320Z,99796.58
2018-03-30T07:49:43.337Z,99792.32
2018-03-30T07:52:11.718Z,99784.80
2018-03-30T07:54:40.170Z,99789.06
2018-03-30T07:57:08.596Z,99778.74
2018-03-30T07:59:44.216Z,99774.67
2018-03-30T08:02:13.661Z,99772.68
2018-03-30T08:04:42.061Z,99767.56
2018-03-30T08:07:10.458Z,99770.94
2018-03-30T08:09:39.620Z,99761.52
2018-03-30T08:12:08.303Z,99756.37
2018-03-30T08:14:36.721Z,99754.30
2018-03-30T08:17:05.141Z,99749.27
2018-03-30T08:19:33.535Z,99739.52
2018-03-30T08:22:01.923Z,99741.53
2018-03-30T08:24:30.308Z,99737.61
2018-03-30T08:26:58.747Z,99734.70
2018-03-30T08:29:27.168Z,99737.61
2018-03-30T08:31:55.574Z,99737.33
2018-03-30T08:34:23.957Z,99731.45
2018-03-30T08:36:52.354Z,99730.05
2018-03-30T08:39:21.507Z,99727.89
2018-03-30T08:41:49.964Z,99719.58
2018-03-30T08:44:18.334Z,99728.78
2018-03-30T08:46:46.751Z,99723.25
2018-03-30T08:49:15.223Z,99729.14
2018-03-30T08:51:43.607Z,99725.00
2018-03-30T08:54:11.992Z,99721.38
2018-03-30T08:56:41.678Z,99706.29
2018-03-30T08:59:10.277Z,99705.13
2018-03-30T09:01:38.719Z,99703.77
2018-03-30T09:04:07.156Z,99703.44
2018-03-30T09:06:35.568Z,99699.55
2018-03-30T09:09:03.956Z,99701.09
2018-03-30T09:11:32.342Z,99696.02
2018-03-30T09:14:01.522Z,99688.20
2018-03-30T09:16:29.925Z,99683.02
2018-03-30T09:18:58.379Z,99691.45
2018-03-30T09:21:26.832Z,99686.52
2018-03-30T09:23:55.215Z,99671.86
2018-03-30T09:26:23.646Z,99670.55
2018-03-30T09:28:52.831Z,99670.29
2018-03-30T09:31:22.023Z,99669.05
2018-03-30T09:33:50.523Z,99665.23
2018-03-30T09:36:19.699Z,99660.09
2018-03-30T09:38:48.161Z,99653.05
2018-03-30T09:41:16.600Z,99648.66
2018-03-30T09:43:50.291Z,99660.02
2018-03-30T09:49:20.559Z,99660.23
2018-03-30T09:51:48.950Z,99653.50
2018-03-30T09:54:17.371Z,99647.12
2018-03-30T09:56:45.775Z,99637.22
2018-03-30T09:59:14.211Z,99639.02
2018-03-30T10:01:42.830Z,99635.84
2018-03-30T10:04:11.292Z,99630.04
2018-03-30T10:06:39.712Z,99637.33
2018-03-30T10:09:08.904Z,99627.77
2018-03-30T10:11:37.289Z,99618.98
2018-03-30T10:14:06.475Z,99616.53
2018-03-30T10:16:34.855Z,99613.13
2018-03-30T10:19:03.407Z,99605.61
2018-03-30T10:21:31.816Z,99593.30
2018-03-30T10:24:00.368Z,99593.62
2018-03-30T10:26:28.761Z,99587.32
2018-03-30T10:28:57.176Z,99585.65
2018-03-30T10:31:25.601Z,99575.20
2018-03-30T10:33:53.975Z,99577.44
2018-03-30T10:36:22.392Z,99572.94
2018-03-30T10:38:50.867Z,99560.55
2018-03-30T10:41:19.459Z,99546.82
2018-03-30T10:43:48.025Z,99529.09
2018-03-30T10:46:16.409Z,99534.36
2018-03-30T10:48:44.835Z,99524.64
2018-03-30T10:51:16.864Z,99518.40
2018-03-30T10:53:45.288Z,99510.47
2018-03-30T10:56:16.773Z,99505.47
2018-03-30T10:58:48.379Z,99492.16
2018-03-30T11:01:16.808Z,99473.77
2018-03-30T11:03:50.878Z,99472.94
2018-03-30T11:06:19.525Z,99475.26
2018-03-30T11:08:47.915Z,99460.35
2018-03-30T11:11:16.563Z,99452.77
2018-03-30T11:13:45.730Z,99441.83
2018-03-30T11:16:14.143Z,99431.02
2018-03-30T11:18:42.568Z,99425.61
2018-03-30T11:21:10.996Z,99415.55
2018-03-30T11:23:39.440Z,99413.37
2018-03-30T11:26:07.893Z,99399.02
2018-03-30T11:28:36.303Z,99397.80
2018-03-30T11:31:04.755Z,99406.19
2018-03-30T11:33:33.135Z,99409.92
2018-03-30T11:36:01.590Z,99406.22
2018-03-30T11:38:30.762Z,99416.31
2018-03-30T11:41:00.041Z,99414.80
2018-03-30T11:43:28.492Z,99416.84
2018-03-30T11:45:56.903Z,99416.56
2018-03-30T11:48:25.333Z,99415.95
2018-03-30T11:50:54.363Z,99415.50
2018-03-30T11:53:23.052Z,99407.03
2018-03-30T11:55:51.908Z,99397.87
2018-03-30T11:58:20.560Z,99404.63
2018-03-30T12:00:49.093Z,99414.67
2018-03-30T12:03:18.256Z,99420.38
2018-03-30T12:05:46.653Z,99421.13
2018-03-30T12:08:15.322Z,99408.69
2018-03-30T12:10:43.736Z,99402.03
2018-03-30T12:13:12.216Z,99407.89
2018-03-30T12:15:40.628Z,99394.48
2018-03-30T12:18:09.044Z,99397.31
2018-03-30T12:20:37.516Z,99394.59
2018-03-30T12:23:06.104Z,99393.59
2018-03-30T12:25:34.620Z,99396.84
2018-03-30T12:28:03.006Z,99388.78
2018-03-30T12:30:31.424Z,99396.12
2018-03-30T12:32:59.828Z,99404.24
2018-03-30T12:35:28.233Z,99400.85
2018-03-30T12:37:57.517Z,99394.59
2018-03-30T12:40:25.929Z,99395.79
2018-03-30T12:42:54.373Z,99407.23
2018-03-30T12:45:23.032Z,99399.63
2018-03-30T12:47:52.246Z,99391.77
2018-03-30T12:50:20.634Z,99394.30
2018-03-30T12:52:49.037Z,99393.72
2018-03-30T12:55:17.454Z,99386.13
2018-03-30T12:57:45.896Z,99386.97
2018-03-30T13:00:14.311Z,99382.83
2018-03-30T13:02:42.709Z,99370.70
2018-03-30T13:05:11.890Z,99372.03
2018-03-30T13:07:40.301Z,99368.30
2018-03-30T13:10:09.515Z,99366.12
2018-03-30T13:12:38.661Z,99359.70
2018-03-30T13:15:07.059Z,99351.11
2018-03-30T13:17:35.503Z,99350.41
2018-03-30T13:20:03.907Z,99344.42
2018-03-30T13:22:32.302Z,99331.66
2018-03-30T13:25:00.699Z,99333.30
2018-03-30T13:27:29.908Z,99328.40
2018-03-30T13:29:58.300Z,99323.65
2018-03-30T13:32:26.782Z,99315.88
2018-03-30T13:34:55.179Z,99315.36
2018-03-30T13:37:24.273Z,99313.63
2018-03-30T13:39:52.692Z,99310.84
2018-03-30T13:42:21.057Z,99311.58
2018-03-30T13:44:49.521Z,99296.69
2018-03-30T13:47:17.921Z,99293.88
2018-03-30T13:49:46.331Z,99284.57
2018-03-30T13:52:34.102Z,99279.56
2018-03-30T13:55:02.504Z,99282.42
2018-03-30T14:00:48.990Z,99277.61
2018-03-30T14:03:21.996Z,99278.86
2018-03-30T14:06:13.840Z,99288.06
2018-03-30T14:12:00.986Z,99282.36
2018-03-30T14:14:29.384Z,99270.45
2018-03-30T14:16:58.518Z,99260.73
2018-03-30T14:19:28.687Z,99257.17
2018-03-30T14:22:06.711Z,99252.15
2018-03-30T14:24:37.948Z,99255.50
2018-03-30T14:27:09.833Z,99252.45
2018-03-30T14:29:38.931Z,99250.63
2018-03-30T14:32:35.534Z,99244.00
2018-03-30T14:35:12.518Z,99249.94
2018-03-30T14:37:42.538Z,99242.87
2018-03-30T14:40:30.068Z,99246.05
2018-03-30T14:43:00.968Z,99239.62
2018-03-30T14:45:46.914Z,99237.08
2018-03-30T14:48:25.733Z,99234.73
2018-03-30T14:51:10.680Z,99241.06
2018-03-30T14:53:46.815Z,99222.44
2018-03-30T14:56:32.698Z,99222.62
2018-03-30T14:59:06.392Z,99215.45
2018-03-30T15:01:46.891Z,99222.13
2018-03-30T15:04:22.484Z,99211.73
2018-03-30T15:06:59.510Z,99213.39
2018-03-30T15:09:33.734Z,99211.94
2018-03-30T15:12:11.917Z,99213.45
2018-03-30T15:14:47.084Z,99213.95
2018-03-30T15:17:25.501Z,99210.41
2018-03-30T15:22:53.946Z,99196.37
2018-03-30T15:25:23.004Z,99199.89
2018-03-30T15:27:55.757Z,99198.80
2018-03-30T15:30:31.743Z,99193.96
2018-03-30T15:33:10.444Z,99197.74
2018-03-30T15:35:54.461Z,99194.87
2018-03-30T15:38:24.043Z,99185.05
2018-03-30T15:40:52.955Z,99178.58
2018-03-30T15:43:32.393Z,99182.54
2018-03-30T15:46:26.511Z,99180.61
2018-03-30T15:48:54.972Z,99184.44
2018-03-30T15:51:31.770Z,99177.72
2018-03-30T15:53:59.508Z,99180.05
2018-03-30T15:56:30.588Z,99174.42
2018-03-30T15:58:59.016Z,99173.20
2018-03-30T16:01:28.760Z,99173.45
2018-03-30T16:03:57.951Z,99172.67
2018-03-30T16:06:26.456Z,99170.08
2018-03-30T16:08:55.636Z,99181.78
2018-03-30T16:11:36.624Z,99175.70
2018-03-30T16:14:05.852Z,99177.25
2018-03-30T16:16:34.263Z,99169.07
2018-03-30T16:19:01.956Z,99183.91
2018-03-30T16:21:29.795Z,99183.63
2018-03-30T16:23:57.359Z,99187.59
2018-03-30T16:26:24.960Z,99195.46
2018-03-30T16:29:02.420Z,99195.67
2018-03-30T16:31:30.019Z,99196.41
2018-03-30T16:33:57.540Z,99203.67
2018-03-30T16:36:25.089Z,99208.39
2018-03-30T16:38:52.633Z,99197.30
2018-03-30T16:41:20.178Z,99209.66
2018-03-30T16:43:47.730Z,99205.27
2018-03-30T16:46:15.450Z,99209.83
2018-03-30T16:48:43.034Z,99209.82
2018-03-30T16:51:10.637Z,99199.19
2018-03-30T16:53:38.273Z,99193.96
2018-03-30T16:56:06.587Z,99196.84
2018-03-30T16:58:34.152Z,99195.21
2018-03-30T17:01:01.714Z,99192.63
2018-03-30T17:03:29.311Z,99188.50
2018-03-30T17:05:56.921Z,99191.41
2018-03-30T17:08:24.512Z,99195.33
2018-03-30T17:10:52.088Z,99191.81
2018-03-30T17:13:19.755Z,99193.70
2018-03-30T17:15:47.329Z,99188.98
2018-03-30T17:18:16.051Z,99192.03
2018-03-30T17:20:44.842Z,99191.56
2018-03-30T17:23:22.493Z,99187.03
2018-03-30T17:25:50.036Z,99184.92
2018-03-30T17:28:18.104Z,99184.08
2018-03-30T17:30:47.541Z,99199.42
2018-03-30T17:33:16.463Z,99198.22
2018-03-30T17:35:44.813Z,99197.81
2018-03-30T17:38:12.574Z,99195.59
2018-03-30T17:40:41.069Z,99195.88
2018-03-30T17:43:08.614Z,99193.73
2018-03-30T17:45:36.244Z,99185.72
2018-03-30T17:48:14.221Z,99184.93
2018-03-30T17:50:41.832Z,99180.23
2018-03-30T17:53:09.380Z,99187.27
2018-03-30T17:55:37.318Z,99184.22
2018-03-30T17:58:04.954Z,99184.36
2018-03-30T18:00:32.539Z,99184.73
2018-03-30T18:03:00.859Z,99186.19
2018-03-30T18:05:28.494Z,99200.75
2018-03-30T18:07:56.058Z,99196.98
2018-03-30T18:10:23.621Z,99203.59
2018-03-30T18:12:51.187Z,99209.30
2018-03-30T18:15:18.733Z,99213.50
2018-03-30T18:17:46.405Z,99222.95
2018-03-30T18:20:14.094Z,99222.36
2018-03-30T18:22:42.399Z,99237.69
2018-03-30T18:25:10.109Z,99227.74
2018-03-30T18:27:38.440Z,99232.98
2018-03-30T18:30:06.120Z,99230.38
2018-03-30T18:32:33.989Z,99223.45
2018-03-30T18:35:01.595Z,99231.19
2018-03-30T18:37:29.520Z,99241.16
2018-03-30T18:39:57.193Z,99237.27
2018-03-30T18:42:24.860Z,99239.91
2018-03-30T18:44:52.512Z,99242.96
2018-03-30T18:47:20.108Z,99245.94
2018-03-30T18:49:47.706Z,99243.89
2018-03-30T18:52:16.225Z,99251.69
2018-03-30T18:54:43.908Z,99254.33
2018-03-30T18:57:11.765Z,99258.73
2018-03-30T18:59:39.507Z,99256.59
2018-03-30T19:02:07.640Z,99253.58
2018-03-30T19:04:35.235Z,99252.28
2018-03-30T19:07:02.902Z,99253.17
2018-03-30T19:09:30.559Z,99247.48
2018-03-30T19:11:58.969Z,99260.92
2018-03-30T19:14:26.531Z,99259.17
2018-03-30T19:16:54.484Z,99261.24
2018-03-30T19:19:22.126Z,99266.52
2018-03-30T19:21:50.590Z,99272.57
2018-03-30T19:24:18.347Z,99268.37
2018-03-30T19:26:46.031Z,99281.46
2018-03-30T19:29:14.633Z,99272.02
2018-03-30T19:31:43.501Z,99275.56
2018-03-30T19:34:11.147Z,99270.94
2018-03-30T19:36:38.710Z,99278.35
2018-03-30T19:39:06.247Z,99270.62
2018-03-30T19:41:33.839Z,99281.88
2018-03-30T19:44:01.372Z,99274.11
2018-03-30T19:46:28.904Z,99282.33
2018-03-30T19:48:56.470Z,99283.58
2018-03-30T19:51:24.188Z,99282.77
2018-03-30T19:53:51.870Z,99277.11
2018-03-30T19:56:20.188Z,99275.82
2018-03-30T19:58:47.785Z,99276.69
2018-03-30T20:01:15.335Z,99274.05
2018-03-30T20:03:43.141Z,99280.12
2018-03-30T20:06:10.714Z,99279.30
2018-03-30T20:08:39.118Z,99276.73
2018-03-30T20:11:06.648Z,99283.66
2018-03-30T20:13:34.978Z,99282.79
2018-03-30T20:16:02.772Z,99294.03
2018-03-30T20:18:30.351Z,99303.54
2018-03-30T20:20:58.127Z,99300.57
2018-03-30T20:23:25.813Z,99310.08
2018-03-30T20:25:53.375Z,99304.47
2018-03-30T20:28:20.975Z,99310.92
2018-03-30T20:30:49.293Z,99308.77
2018-03-30T20:33:16.827Z,99305.77
2018-03-30T20:35:44.491Z,99307.94
2018-03-30T20:38:12.566Z,99307.95
2018-03-30T20:40:40.236Z,99301.91
2018-03-30T20:43:07.903Z,99302.77
2018-03-30T20:45:35.751Z,99301.48
2018-03-30T20:48:03.353Z,99310.97
2018-03-30T20:50:30.899Z,99308.37
2018-03-30T20:52:58.458Z,99306.66
2018-03-30T20:55:26.276Z,99302.78
2018-03-30T20:57:54.624Z,99304.05
2018-03-30T21:02:55.977Z,99305.80
2018-03-30T21:05:23.579Z,99314.01
2018-03-30T21:07:51.175Z,99306.69
2018-03-30T21:10:19.487Z,99306.63
2018-03-30T21:12:47.049Z,99310.55
2018-03-30T21:15:14.594Z,99298.46
2018-03-30T21:17:42.983Z,99310.13
2018-03-30T21:20:10.512Z,99308.84
2018-03-30T21:22:38.970Z,99306.69
2018-03-30T21:25:06.582Z,99298.92
2018-03-30T21:27:34.115Z,99299.78
2018-03-30T21:30:02.425Z,99309.73
2018-03-30T21:32:30.100Z,99306.72
2018-03-30T21:34:57.896Z,99305.42
2018-03-30T21:37:25.460Z,99304.56
2018-03-30T21:39:53.020Z,99306.28
2018-03-30T21:42:20.679Z,99307.59
2018-03-30T21:44:48.232Z,99310.62
2018-03-30T21:47:15.757Z,99314.07
2018-03-30T21:49:43.301Z,99311.47
2018-03-30T21:52:11.605Z,99318.38
2018-03-30T21:54:39.135Z,99322.25
2018-03-30T21:57:07.439Z,99324.00
2018-03-30T21:59:35.002Z,99328.73
2018-03-30T22:02:02.568Z,99327.00
2018-03-30T22:04:30.161Z,99333.92
2018-03-30T22:06:57.841Z,99331.75
2018-03-30T22:09:25.387Z,99335.64
2018-03-30T22:11:52.952Z,99332.19
2018-03-30T22:14:20.564Z,99336.94
2018-03-30T22:16:48.270Z,99340.39
2018-03-30T22:19:15.816Z,99340.82
2018-03-30T22:21:43.463Z,99334.36
2018-03-30T22:24:11.013Z,99331.34
2018-03-30T22:26:39.377Z,99337.80
2018-03-30T22:29:06.921Z,99342.53
2018-03-30T22:31:34.529Z,99339.52
2018-03-30T22:34:02.397Z,99328.73
2018-03-30T22:36:30.144Z,99333.50
2018-03-30T22:38:58.531Z,99324.41
2018-03-30T22:41:26.069Z,99331.75
2018-03-30T22:43:53.702Z,99323.99
2018-03-30T22:46:21.253Z,99329.59
2018-03-30T22:48:48.775Z,99327.02
2018-03-30T22:51:17.077Z,99331.33
2018-03-30T22:53:44.637Z,99326.56
2018-03-30T22:56:12.192Z,99325.70
2018-03-30T22:58:39.775Z,99323.53
2018-03-30T23:01:07.260Z,99323.12
2018-03-30T23:03:34.895Z,99317.52
2018-03-30T23:06:02.423Z,99317.45
2018-03-30T23:08:30.736Z,99314.89
2018-03-30T23:10:58.274Z,99310.55
2018-03-30T23:13:25.804Z,99315.70
2018-03-30T23:15:53.334Z,99319.56
2018-03-30T23:18:20.881Z,99309.63
2018-03-30T23:20:48.432Z,99315.67
2018-03-30T23:23:15.987Z,99308.74
2018-03-30T23:25:44.367Z,99310.06
2018-03-30T23:28:11.938Z,99316.06
2018-03-30T23:30:39.511Z,99305.24
2018-03-30T23:33:07.068Z,99311.72
2018-03-30T23:35:34.630Z,99319.02
2018-03-30T23:38:02.204Z,99322.05
2018-03-30T23:42:56.995Z,99324.55
2018-03-30T23:45:24.555Z,99336.55
2018-03-30T23:47:52.867Z,99331.40
2018-03-30T23:50:20.387Z,99342.47
2018-03-30T23:52:47.932Z,99339.98
2018-03-30T23:55:16.230Z,99333.59
2018-03-30T23:57:44.640Z,99334.85
